Lake Tomahawk, Wisconsin
Current Conditions -  °F | °C
As of 4:35 PM on Wednesday 22 Oct 2014 (Local Time) from KARV Reporting Station
Clear Clear  
Wind Chill: 57°   Ceiling: Unl
Heat Index: 57°   Visibility: 10mi
Dew Point: 27°   Wind: 10mph
Humidity: 32%   Direction: 170°S
Pressure: 30.2"   Gusts: NA
Location:  45.81°N, 89.59°W
Report Text: KARV 222135Z AUTO 17009KT 140V200 10SM CLR 14/M03 A3020 RMK AO2 T01381027
Loading
Personal Weather Stations






























Interactive Weather Map
Tropical Storm Tracking
New forecast layout! Learn more

10-Day Weather Forecast

Advertisements
Track Severe Weather on mobile